createdAt,value
2023-05-15T00:01:44.370Z,11.33
2023-05-15T00:04:12.018Z,11.28
2023-05-15T00:06:39.729Z,11.23
2023-05-15T00:09:07.923Z,11.25
2023-05-15T00:11:37.025Z,11.27
2023-05-15T00:14:04.733Z,11.21
2023-05-15T00:16:32.446Z,11.15
2023-05-15T00:19:00.249Z,11.23
2023-05-15T00:21:28.008Z,11.14
2023-05-15T00:23:56.852Z,11.27
2023-05-15T00:26:24.502Z,11.15
2023-05-15T00:28:53.577Z,11.19
2023-05-15T00:31:21.244Z,11.07
2023-05-15T00:33:48.885Z,11.05
2023-05-15T00:36:17.480Z,11.03
2023-05-15T00:38:45.389Z,11.00
2023-05-15T00:41:13.231Z,10.93
2023-05-15T00:43:41.142Z,10.91
2023-05-15T00:46:10.717Z,10.84
2023-05-15T00:48:38.660Z,10.90
2023-05-15T00:51:06.440Z,10.84
2023-05-15T00:53:34.053Z,10.83
2023-05-15T00:56:02.021Z,10.76
2023-05-15T00:58:30.462Z,10.68
2023-05-15T01:00:58.133Z,10.68
2023-05-15T01:03:27.288Z,10.63
2023-05-15T01:05:55.192Z,10.63
2023-05-15T01:08:27.400Z,10.61
2023-05-15T01:10:55.443Z,10.55
2023-05-15T01:13:23.530Z,10.48
2023-05-15T01:15:51.358Z,10.46
2023-05-15T01:18:19.344Z,10.39
2023-05-15T01:21:03.066Z,10.31
2023-05-15T01:23:39.921Z,10.37
2023-05-15T01:26:22.859Z,10.37
2023-05-15T01:28:57.469Z,10.55
2023-05-15T01:31:25.497Z,10.39
2023-05-15T01:33:55.800Z,10.31
2023-05-15T01:36:27.841Z,10.31
2023-05-15T01:38:59.720Z,10.30
2023-05-15T01:41:29.202Z,10.36
2023-05-15T01:44:01.835Z,10.23
2023-05-15T01:46:31.450Z,10.18
2023-05-15T01:49:01.279Z,10.06
2023-05-15T01:51:29.122Z,10.02
2023-05-15T01:53:59.264Z,10.07
2023-05-15T01:56:27.584Z,10.05
2023-05-15T01:58:56.503Z,10.07
2023-05-15T02:01:26.173Z,10.07
2023-05-15T02:03:54.217Z,10.06
2023-05-15T02:06:22.323Z,10.05
2023-05-15T02:08:50.256Z,9.90
2023-05-15T02:11:17.887Z,9.91
2023-05-15T02:13:47.164Z,9.95
2023-05-15T02:16:14.877Z,9.84
2023-05-15T02:18:44.001Z,9.98
2023-05-15T02:21:11.653Z,9.89
2023-05-15T02:23:40.782Z,9.99
2023-05-15T02:26:13.498Z,9.97
2023-05-15T02:28:45.693Z,9.94
2023-05-15T02:31:15.572Z,9.87
2023-05-15T02:33:46.906Z,9.83
2023-05-15T02:36:17.842Z,9.80
2023-05-15T02:38:47.805Z,9.72
2023-05-15T02:41:16.407Z,9.27
2023-05-15T02:43:44.876Z,9.71
2023-05-15T02:46:14.547Z,9.70
2023-05-15T02:48:42.557Z,9.67
2023-05-15T02:51:11.595Z,9.59
2023-05-15T02:53:40.560Z,9.61
2023-05-15T02:56:08.257Z,9.58
2023-05-15T02:58:36.191Z,9.62
2023-05-15T03:01:04.458Z,9.54
2023-05-15T03:03:32.181Z,9.57
2023-05-15T03:06:00.882Z,9.54
2023-05-15T03:08:30.140Z,9.61
2023-05-15T03:10:58.324Z,9.71
2023-05-15T03:13:26.166Z,9.78
2023-05-15T03:15:54.064Z,9.69
2023-05-15T03:18:21.746Z,9.72
2023-05-15T03:20:52.566Z,9.50
2023-05-15T03:23:20.198Z,9.35
2023-05-15T03:25:49.285Z,9.38
2023-05-15T03:28:17.000Z,9.45
2023-05-15T03:30:44.978Z,9.34
2023-05-15T03:33:12.586Z,9.37
2023-05-15T03:35:40.210Z,9.40
2023-05-15T03:38:07.742Z,8.99
2023-05-15T03:40:35.671Z,8.75
2023-05-15T03:43:06.274Z,9.00
2023-05-15T03:45:34.519Z,9.09
2023-05-15T03:48:02.216Z,9.18
2023-05-15T03:50:30.978Z,9.18
2023-05-15T03:53:00.367Z,9.13
2023-05-15T03:55:28.227Z,9.24
2023-05-15T03:57:55.926Z,9.29
2023-05-15T04:00:25.221Z,9.35
2023-05-15T04:02:53.046Z,9.37
2023-05-15T04:05:21.793Z,9.39
2023-05-15T04:07:49.612Z,9.41
2023-05-15T04:10:17.216Z,9.08
2023-05-15T04:12:44.834Z,8.96
2023-05-15T04:15:16.356Z,9.34
2023-05-15T04:17:45.565Z,9.52
2023-05-15T04:20:14.134Z,9.62
2023-05-15T04:22:41.820Z,9.61
2023-05-15T04:25:11.132Z,9.90
2023-05-15T04:27:38.855Z,9.92
2023-05-15T04:30:06.986Z,9.78
2023-05-15T04:32:34.790Z,9.59
2023-05-15T04:35:05.423Z,9.60
2023-05-15T04:37:33.203Z,9.54
2023-05-15T04:40:00.802Z,9.67
2023-05-15T04:42:28.844Z,9.74
2023-05-15T04:44:57.114Z,9.74
2023-05-15T04:47:24.760Z,9.72
2023-05-15T04:49:52.412Z,9.82
2023-05-15T04:52:21.534Z,9.83
2023-05-15T04:54:50.987Z,9.89
2023-05-15T04:57:18.859Z,9.97
2023-05-15T04:59:46.465Z,10.03
2023-05-15T05:02:14.249Z,10.08
2023-05-15T05:04:43.425Z,10.12
2023-05-15T05:07:11.032Z,10.18
2023-05-15T05:09:40.877Z,10.01
2023-05-15T05:12:09.163Z,9.84
2023-05-15T05:14:36.832Z,9.83
2023-05-15T05:17:04.653Z,9.77
2023-05-15T05:19:32.239Z,9.95
2023-05-15T05:22:04.536Z,9.85
2023-05-15T05:24:32.567Z,9.78
2023-05-15T05:27:01.544Z,9.84
2023-05-15T05:29:30.550Z,9.71
2023-05-15T05:31:58.353Z,9.95
2023-05-15T05:34:25.950Z,9.95
2023-05-15T05:36:53.649Z,10.20
2023-05-15T05:39:21.859Z,10.32
2023-05-15T05:41:49.724Z,10.52
2023-05-15T05:44:18.716Z,10.63
2023-05-15T05:46:46.356Z,10.64
2023-05-15T05:49:13.864Z,10.69
2023-05-15T05:51:41.486Z,10.86
2023-05-15T05:54:09.110Z,10.94
2023-05-15T05:56:36.710Z,10.98
2023-05-15T05:59:04.686Z,11.01
2023-05-15T06:01:33.734Z,10.95
2023-05-15T06:04:01.491Z,11.11
2023-05-15T06:06:29.228Z,11.13
2023-05-15T06:08:57.102Z,11.23
2023-05-15T06:11:25.509Z,11.42
2023-05-15T06:13:53.362Z,11.49
2023-05-15T06:16:21.044Z,11.58
2023-05-15T06:18:50.067Z,11.66
2023-05-15T06:21:17.757Z,11.77
2023-05-15T06:23:45.773Z,11.85
2023-05-15T06:26:13.377Z,11.80
2023-05-15T06:28:41.017Z,11.69
2023-05-15T06:31:08.655Z,11.76
2023-05-15T06:33:36.281Z,11.88
2023-05-15T06:36:05.423Z,12.00
2023-05-15T06:38:33.072Z,11.91
2023-05-15T06:41:00.682Z,12.00
2023-05-15T06:43:28.336Z,12.12
2023-05-15T06:45:55.991Z,12.30
2023-05-15T06:48:23.570Z,12.38
2023-05-15T06:50:51.470Z,12.45
2023-05-15T06:53:21.008Z,12.40
2023-05-15T06:55:48.642Z,12.32
2023-05-15T06:58:17.914Z,12.35
2023-05-15T07:00:45.526Z,12.36
2023-05-15T07:03:14.328Z,12.45
2023-05-15T07:05:42.311Z,12.49
2023-05-15T07:08:09.947Z,12.64
2023-05-15T07:10:39.205Z,12.75
2023-05-15T07:13:06.991Z,12.85
2023-05-15T07:15:34.671Z,12.97
2023-05-15T07:18:02.627Z,13.15
2023-05-15T07:20:32.489Z,13.32
2023-05-15T07:23:01.923Z,13.41
2023-05-15T07:25:29.649Z,13.44
2023-05-15T07:27:58.664Z,13.45
2023-05-15T07:30:26.691Z,13.68
2023-05-15T07:32:54.484Z,14.13
2023-05-15T07:35:22.111Z,13.90
2023-05-15T07:37:49.764Z,14.00
2023-05-15T07:40:17.389Z,14.54
2023-05-15T07:42:45.432Z,14.24
2023-05-15T07:45:14.455Z,14.78
2023-05-15T07:47:45.798Z,15.14
2023-05-15T07:50:13.515Z,15.54
2023-05-15T07:52:41.369Z,15.22
2023-05-15T07:55:09.478Z,15.59
2023-05-15T07:57:37.213Z,15.73
2023-05-15T08:00:10.266Z,15.75
2023-05-15T08:02:46.214Z,15.95
2023-05-15T08:05:14.117Z,15.95
2023-05-15T08:07:41.713Z,16.20
2023-05-15T08:10:09.712Z,16.36
2023-05-15T08:12:37.515Z,16.62
2023-05-15T08:15:05.310Z,16.73
2023-05-15T08:17:32.936Z,17.21
2023-05-15T08:20:02.063Z,17.62
2023-05-15T08:22:30.643Z,17.61
2023-05-15T08:24:58.474Z,17.89
2023-05-15T08:27:26.262Z,18.03
2023-05-15T08:29:54.700Z,17.70
2023-05-15T08:32:22.504Z,17.92
2023-05-15T08:34:50.464Z,18.47
2023-05-15T08:37:19.454Z,18.50
2023-05-15T08:39:47.142Z,18.80
2023-05-15T08:42:19.540Z,18.94
2023-05-15T08:44:47.382Z,18.80
2023-05-15T08:47:15.292Z,18.60
2023-05-15T08:49:47.466Z,18.46
2023-05-15T08:52:16.221Z,18.63
2023-05-15T08:54:47.928Z,18.70
2023-05-15T08:57:16.472Z,18.70
2023-05-15T08:59:44.336Z,18.52
2023-05-15T09:02:12.123Z,18.70
2023-05-15T09:04:39.931Z,18.92
2023-05-15T09:07:07.578Z,19.18
2023-05-15T09:09:35.374Z,19.27
2023-05-15T09:12:04.516Z,19.30
2023-05-15T09:14:32.559Z,19.61
2023-05-15T09:17:00.219Z,19.93
2023-05-15T09:19:28.503Z,20.05
2023-05-15T09:21:56.183Z,19.87
2023-05-15T09:24:24.955Z,19.79
2023-05-15T09:27:03.004Z,19.80
2023-05-15T09:29:33.137Z,19.87
2023-05-15T09:32:03.825Z,20.00
2023-05-15T09:34:32.438Z,20.06
2023-05-15T09:37:00.090Z,19.64
2023-05-15T09:39:27.714Z,19.59
2023-05-15T09:41:55.671Z,19.44
2023-05-15T09:44:25.814Z,19.50
2023-05-15T09:46:54.975Z,19.31
2023-05-15T09:49:22.773Z,19.49
2023-05-15T09:51:50.868Z,19.47
2023-05-15T09:54:19.614Z,19.48
2023-05-15T09:56:47.926Z,19.77
2023-05-15T09:59:16.428Z,19.81
2023-05-15T10:01:45.602Z,19.89
2023-05-15T10:04:15.045Z,19.85
2023-05-15T10:06:43.646Z,19.88
2023-05-15T10:09:11.611Z,19.89
2023-05-15T10:11:40.111Z,19.86
2023-05-15T10:14:08.770Z,20.14
2023-05-15T10:16:37.264Z,20.02
2023-05-15T10:19:05.789Z,19.94
2023-05-15T10:21:35.912Z,20.13
2023-05-15T10:24:04.631Z,20.26
2023-05-15T10:26:36.382Z,19.89
2023-05-15T10:29:05.950Z,19.75
2023-05-15T10:31:34.066Z,19.58
2023-05-15T10:34:01.992Z,19.51
2023-05-15T10:36:29.755Z,19.63
2023-05-15T10:38:59.235Z,19.66
2023-05-15T10:41:27.960Z,19.86
2023-05-15T10:43:56.373Z,20.22
2023-05-15T10:46:24.120Z,20.20
2023-05-15T10:48:52.101Z,19.88
2023-05-15T10:51:20.364Z,20.10
2023-05-15T10:53:48.006Z,20.12
2023-05-15T10:56:17.608Z,20.34
2023-05-15T10:58:47.270Z,20.47
2023-05-15T11:01:32.043Z,20.61
2023-05-15T11:04:06.759Z,20.89
2023-05-15T11:06:35.017Z,21.10
2023-05-15T11:09:21.068Z,21.16
2023-05-15T11:11:57.150Z,21.05
2023-05-15T11:17:00.212Z,20.11
2023-05-15T11:19:33.247Z,20.11
2023-05-15T11:22:01.911Z,19.95
2023-05-15T11:24:30.630Z,20.00
2023-05-15T11:27:03.149Z,20.07
2023-05-15T11:29:31.486Z,20.07
2023-05-15T11:31:59.657Z,20.47
2023-05-15T11:34:31.114Z,20.72
2023-05-15T11:36:59.472Z,20.78
2023-05-15T11:39:27.419Z,20.94
2023-05-15T11:41:55.356Z,20.79
2023-05-15T11:44:24.823Z,20.61
2023-05-15T11:46:52.475Z,20.54
2023-05-15T11:49:20.601Z,20.69
2023-05-15T11:51:49.210Z,20.88
2023-05-15T11:54:17.819Z,20.89
2023-05-15T11:56:46.003Z,21.08
2023-05-15T11:59:14.644Z,21.08
2023-05-15T12:01:45.440Z,21.12
2023-05-15T12:04:14.293Z,21.17
2023-05-15T12:06:44.461Z,21.54
2023-05-15T12:09:16.147Z,21.71
2023-05-15T12:11:48.670Z,21.65
2023-05-15T12:14:16.305Z,21.83
2023-05-15T12:16:45.388Z,21.97
2023-05-15T12:19:13.225Z,21.54
2023-05-15T12:21:47.041Z,21.08
2023-05-15T12:24:14.637Z,20.92
2023-05-15T12:26:42.378Z,20.57
2023-05-15T12:29:10.311Z,20.65
2023-05-15T12:31:38.417Z,20.45
2023-05-15T12:34:08.008Z,20.22
2023-05-15T12:36:35.646Z,20.30
2023-05-15T12:39:06.300Z,20.24
2023-05-15T12:41:34.031Z,20.53
2023-05-15T12:44:01.612Z,20.53
2023-05-15T12:46:31.706Z,20.60
2023-05-15T12:48:59.496Z,20.51
2023-05-15T12:51:29.963Z,20.29
2023-05-15T12:53:58.849Z,20.41
2023-05-15T12:56:26.548Z,20.16
2023-05-15T12:58:55.491Z,20.17
2023-05-15T13:01:23.358Z,20.05
2023-05-15T13:03:51.697Z,19.79
2023-05-15T13:06:19.906Z,19.33
2023-05-15T13:08:49.058Z,19.08
2023-05-15T13:11:18.309Z,18.84
2023-05-15T13:13:46.780Z,18.98
2023-05-15T13:16:21.528Z,18.80
2023-05-15T13:18:49.431Z,18.61
2023-05-15T13:21:17.176Z,18.64
2023-05-15T13:23:44.812Z,18.49
2023-05-15T13:26:13.883Z,17.98
2023-05-15T13:28:41.656Z,18.22
2023-05-15T13:31:09.406Z,17.51
2023-05-15T13:33:37.577Z,17.34
2023-05-15T13:36:05.535Z,16.87
2023-05-15T13:38:33.454Z,16.54
2023-05-15T13:41:01.183Z,16.36
2023-05-15T13:43:30.152Z,15.56
2023-05-15T13:45:57.825Z,15.52
2023-05-15T13:48:25.633Z,15.56
2023-05-15T13:50:53.352Z,15.64
2023-05-15T13:53:21.289Z,15.36
2023-05-15T13:55:49.017Z,15.15
2023-05-15T13:58:16.622Z,15.22
2023-05-15T14:00:45.741Z,15.13
2023-05-15T14:03:15.184Z,15.16
2023-05-15T14:05:43.152Z,15.08
2023-05-15T14:08:10.976Z,15.05
2023-05-15T14:10:38.622Z,15.01
2023-05-15T14:13:06.339Z,15.23
2023-05-15T14:15:34.015Z,15.28
2023-05-15T14:18:03.253Z,15.13
2023-05-15T14:20:30.905Z,15.37
2023-05-15T14:22:58.534Z,15.42
2023-05-15T14:25:26.813Z,15.32
2023-05-15T14:27:54.466Z,15.29
2023-05-15T14:30:22.986Z,15.46
2023-05-15T14:32:50.762Z,15.32
2023-05-15T14:35:19.751Z,15.29
2023-05-15T14:37:47.445Z,15.00
2023-05-15T14:40:15.034Z,15.09
2023-05-15T14:42:42.669Z,15.32
2023-05-15T14:45:10.831Z,15.52
2023-05-15T14:47:38.477Z,15.57
2023-05-15T14:50:06.314Z,15.93
2023-05-15T14:52:35.714Z,16.20
2023-05-15T14:57:33.949Z,16.26
2023-05-15T15:00:01.714Z,16.21
2023-05-15T15:02:29.527Z,16.29
2023-05-15T15:04:57.841Z,16.33
2023-05-15T15:07:27.977Z,16.15
2023-05-15T15:09:56.972Z,16.02
2023-05-15T15:12:24.632Z,16.32
2023-05-15T15:14:52.300Z,16.23
2023-05-15T15:17:19.908Z,16.13
2023-05-15T15:19:47.503Z,16.47
2023-05-15T15:22:15.198Z,16.69
2023-05-15T15:24:42.777Z,16.87
2023-05-15T15:27:11.788Z,16.82
2023-05-15T15:29:39.383Z,16.61
2023-05-15T15:32:07.299Z,16.58
2023-05-15T15:34:34.958Z,16.39
2023-05-15T15:37:02.737Z,16.84
2023-05-15T15:39:30.411Z,17.01
2023-05-15T15:41:57.997Z,17.12
2023-05-15T15:44:27.030Z,17.12
2023-05-15T15:46:54.692Z,17.13
2023-05-15T15:49:22.351Z,17.01
2023-05-15T15:51:49.968Z,16.99
2023-05-15T15:54:17.720Z,17.03
2023-05-15T15:56:47.746Z,16.99
2023-05-15T15:59:15.792Z,16.84
2023-05-15T16:01:45.534Z,16.82
2023-05-15T16:04:13.352Z,16.71
2023-05-15T16:06:41.050Z,16.89
2023-05-15T16:09:08.806Z,16.81
2023-05-15T16:11:36.661Z,17.05
2023-05-15T16:14:04.511Z,16.93
2023-05-15T16:16:32.181Z,17.24
2023-05-15T16:19:01.380Z,17.17
2023-05-15T16:21:29.049Z,17.17
2023-05-15T16:23:56.664Z,17.21
2023-05-15T16:26:24.316Z,17.20
2023-05-15T16:28:52.043Z,17.12
2023-05-15T16:31:20.188Z,17.62
2023-05-15T16:33:47.898Z,17.77
2023-05-15T16:36:16.966Z,17.32
2023-05-15T16:38:44.694Z,17.54
2023-05-15T16:41:12.455Z,17.49
2023-05-15T16:43:40.154Z,17.41
2023-05-15T16:46:07.959Z,17.37
2023-05-15T16:48:35.692Z,17.35
2023-05-15T16:51:03.422Z,17.65
2023-05-15T16:53:32.585Z,17.72
2023-05-15T16:56:00.378Z,17.90
2023-05-15T16:58:28.018Z,17.89
2023-05-15T17:00:55.648Z,17.89
2023-05-15T17:03:23.419Z,17.85
2023-05-15T17:05:52.424Z,17.94
2023-05-15T17:08:20.161Z,18.03
2023-05-15T17:10:49.197Z,18.20
2023-05-15T17:13:16.906Z,18.19
2023-05-15T17:15:47.091Z,17.89
2023-05-15T17:18:14.802Z,17.80
2023-05-15T17:20:42.449Z,17.80
2023-05-15T17:23:10.079Z,17.89
2023-05-15T17:25:37.807Z,18.01
2023-05-15T17:28:06.830Z,18.05
2023-05-15T17:30:34.650Z,18.11
2023-05-15T17:33:02.433Z,18.14
2023-05-15T17:35:32.815Z,18.10
2023-05-15T17:38:00.981Z,17.98
2023-05-15T17:40:28.564Z,17.78
2023-05-15T17:42:56.164Z,17.68
2023-05-15T17:45:25.545Z,16.98
2023-05-15T17:47:53.326Z,16.71
2023-05-15T17:50:21.005Z,16.70
2023-05-15T17:52:48.608Z,16.82
2023-05-15T17:55:16.359Z,16.90
2023-05-15T17:57:44.047Z,16.93
2023-05-15T18:00:12.308Z,16.87
2023-05-15T18:02:41.264Z,16.88
2023-05-15T18:05:10.137Z,16.83
2023-05-15T18:07:37.786Z,16.79
2023-05-15T18:10:06.565Z,16.72
2023-05-15T18:12:35.236Z,16.61
2023-05-15T18:15:03.043Z,16.59
2023-05-15T18:17:30.756Z,16.47
2023-05-15T18:19:59.819Z,16.40
2023-05-15T18:22:27.531Z,16.40
2023-05-15T18:24:55.161Z,16.33
2023-05-15T18:27:22.847Z,16.28
2023-05-15T18:29:51.570Z,16.23
2023-05-15T18:32:19.904Z,16.02
2023-05-15T18:34:47.915Z,16.05
2023-05-15T18:37:16.928Z,15.94
2023-05-15T18:39:44.555Z,15.67
2023-05-15T18:42:12.165Z,15.72
2023-05-15T18:44:41.652Z,15.70
2023-05-15T18:47:09.495Z,15.67
2023-05-15T18:49:37.357Z,15.56
2023-05-15T18:52:05.235Z,15.44
2023-05-15T18:54:34.212Z,15.51
2023-05-15T18:57:01.844Z,15.41
2023-05-15T18:59:30.104Z,15.24
2023-05-15T19:01:57.825Z,15.20
2023-05-15T19:04:25.434Z,15.12
2023-05-15T19:06:53.228Z,15.09
2023-05-15T19:09:20.904Z,15.03
2023-05-15T19:11:52.262Z,14.99
2023-05-15T19:14:19.879Z,14.94
2023-05-15T19:16:47.611Z,14.98
2023-05-15T19:19:15.824Z,14.95
2023-05-15T19:21:43.447Z,14.89
2023-05-15T19:24:11.499Z,14.97
2023-05-15T19:26:39.356Z,14.98
2023-05-15T19:29:08.403Z,15.09
2023-05-15T19:31:37.375Z,15.22
2023-05-15T19:34:05.014Z,15.10
2023-05-15T19:36:32.594Z,15.15
2023-05-15T19:39:00.241Z,15.21
2023-05-15T19:41:27.840Z,15.23
2023-05-15T19:43:55.495Z,15.19
2023-05-15T19:46:24.520Z,15.21
2023-05-15T19:48:52.133Z,15.19
2023-05-15T19:51:19.791Z,15.14
2023-05-15T19:53:47.459Z,15.06
2023-05-15T19:56:15.122Z,15.02
2023-05-15T19:58:42.841Z,14.92
2023-05-15T20:01:10.692Z,14.89
2023-05-15T20:03:39.872Z,14.87
2023-05-15T20:06:07.600Z,14.86
2023-05-15T20:08:35.229Z,14.86
2023-05-15T20:11:02.838Z,14.83
2023-05-15T20:13:30.875Z,14.74
2023-05-15T20:16:00.715Z,14.65
2023-05-15T20:18:30.363Z,14.65
2023-05-15T20:21:01.265Z,14.11
2023-05-15T20:23:28.898Z,14.48
2023-05-15T20:25:56.491Z,14.65
2023-05-15T20:28:25.732Z,14.67
2023-05-15T20:30:53.392Z,14.67
2023-05-15T20:33:21.089Z,14.62
2023-05-15T20:35:51.168Z,14.59
2023-05-15T20:38:20.743Z,14.58
2023-05-15T20:40:48.992Z,14.50
2023-05-15T20:43:16.613Z,14.57
2023-05-15T20:45:44.257Z,14.58
2023-05-15T20:48:12.046Z,14.50
2023-05-15T20:50:40.037Z,14.42
2023-05-15T20:53:08.090Z,14.46
2023-05-15T20:55:37.376Z,14.37
2023-05-15T20:58:05.077Z,14.15
2023-05-15T21:00:32.851Z,14.19
2023-05-15T21:03:00.597Z,14.12
2023-05-15T21:05:28.394Z,14.06
2023-05-15T21:07:55.988Z,13.93
2023-05-15T21:10:23.635Z,13.92
2023-05-15T21:12:52.616Z,14.01
2023-05-15T21:15:20.382Z,13.95
2023-05-15T21:17:48.074Z,13.86
2023-05-15T21:20:15.667Z,13.84
2023-05-15T21:22:43.334Z,13.69
2023-05-15T21:25:11.839Z,13.64
2023-05-15T21:27:39.515Z,13.53
2023-05-15T21:30:09.470Z,13.51
2023-05-15T21:32:37.167Z,13.48
2023-05-15T21:35:04.850Z,13.50
2023-05-15T21:37:32.656Z,13.43
2023-05-15T21:40:01.664Z,13.39
2023-05-15T21:42:29.982Z,13.26
2023-05-15T21:44:57.580Z,13.38
2023-05-15T21:47:26.701Z,13.44
2023-05-15T21:49:54.381Z,13.42
2023-05-15T21:52:21.962Z,13.42
2023-05-15T21:54:49.555Z,13.23
2023-05-15T21:57:17.304Z,13.26
2023-05-15T21:59:45.025Z,13.36
2023-05-15T22:02:12.806Z,13.38
2023-05-15T22:04:42.023Z,13.38
2023-05-15T22:07:09.788Z,13.23
2023-05-15T22:09:37.400Z,13.30
2023-05-15T22:12:05.275Z,13.32
2023-05-15T22:14:32.908Z,13.17
2023-05-15T22:17:00.632Z,13.16
2023-05-15T22:19:33.053Z,13.17
2023-05-15T22:22:03.393Z,12.96
2023-05-15T22:24:30.984Z,12.97
2023-05-15T22:26:58.753Z,13.05
2023-05-15T22:29:26.621Z,12.87
2023-05-15T22:31:54.204Z,12.87
2023-05-15T22:34:21.829Z,12.67
2023-05-15T22:36:49.444Z,12.50
2023-05-15T22:39:18.428Z,12.64
2023-05-15T22:41:46.058Z,12.55
2023-05-15T22:44:13.647Z,12.65
2023-05-15T22:46:41.446Z,12.45
2023-05-15T22:49:09.877Z,12.54
2023-05-15T22:51:38.480Z,12.37
2023-05-15T22:54:06.335Z,12.23
2023-05-15T22:56:35.596Z,12.24
2023-05-15T22:59:04.539Z,12.21
2023-05-15T23:01:32.247Z,12.24
2023-05-15T23:04:00.031Z,12.18
2023-05-15T23:06:27.775Z,12.19
2023-05-15T23:08:55.860Z,12.12
2023-05-15T23:11:24.456Z,12.25
2023-05-15T23:13:53.457Z,12.38
2023-05-15T23:16:21.224Z,12.37
2023-05-15T23:18:48.941Z,12.28
2023-05-15T23:21:16.603Z,12.35
2023-05-15T23:23:44.767Z,12.58
2023-05-15T23:26:12.510Z,12.43
2023-05-15T23:28:40.365Z,12.29
2023-05-15T23:31:09.447Z,12.13
2023-05-15T23:33:37.940Z,12.27
2023-05-15T23:36:06.026Z,12.30
2023-05-15T23:38:33.614Z,12.17
2023-05-15T23:41:01.248Z,12.14
2023-05-15T23:43:29.625Z,12.00
2023-05-15T23:45:57.248Z,12.18
2023-05-15T23:48:26.232Z,12.05
2023-05-15T23:50:54.556Z,12.04
2023-05-15T23:53:22.177Z,11.93
2023-05-15T23:55:49.978Z,11.94
2023-05-15T23:58:17.799Z,12.07
